Lewek Connector — 3EZP8 — position and weather

sailwx.info

Track history (hours):
 
Tides and Currents Weather Stations Pressure Air Temp Water Temp Dewpoint Dewpoint Depression Visibility Wind Speed Wind Dir Waves Ship Positions

Lewek Connector

Last reported at 2017-Sep-22 01:59 UTC. Time now 2017-Sep-22 02:43 UTC.
Position N 04°29' W 002°30'.

Length 157 m; draft 8.4 m.

Type: Other ship. MMSI: 373479000.

Date/timePositionNaut miles runAvg speedWind from/ knotsBaromVisibWave heightAir tempDewpointWater temp
2017-Sep-22 01:59N 04°29' W 002°30'0 0.0
2017-Sep-22 01:29N 04°29' W 002°30'0 0.1
2017-Sep-22 01:00N 04°29' W 002°30'0 0.0
2017-Sep-22 00:30N 04°29' W 002°30'0 0.0
2017-Sep-21 23:59N 04°29' W 002°30'0 0.2
2017-Sep-21 23:29N 04°29' W 002°30'0 0.9
2017-Sep-21 22:59N 04°28' W 002°31'1 2.3
2017-Sep-21 22:29N 04°29' W 002°31'1 2.5
2017-Sep-21 22:00N 04°30' W 002°32'0 0.0
2017-Sep-21 21:30N 04°30' W 002°32'0 0.0
2017-Sep-21 21:00N 04°30' W 002°32'0 0.0
2017-Sep-21 20:29N 04°30' W 002°32'0 0.0
2017-Sep-21 19:59N 04°30' W 002°32'0 0.0
2017-Sep-21 19:29N 04°30' W 002°32'0 0.1
2017-Sep-21 19:00N 04°30' W 002°32'0 0.0
2017-Sep-21 18:30N 04°30' W 002°32'0 0.5
2017-Sep-21 18:00N 04°30' W 002°32'0 0.5
2017-Sep-21 17:29N 04°30' W 002°32'0 0.2
2017-Sep-21 16:59N 04°30' W 002°32'0 0.0
2017-Sep-21 16:29N 04°30' W 002°32'0 0.1
2017-Sep-21 16:00N 04°30' W 002°32'1 1.4
2017-Sep-21 15:30N 04°29' W 002°32'2 4.0
2017-Sep-21 15:00N 04°27' W 002°32'0 0.0
2017-Sep-21 14:29N 04°27' W 002°32'0 0.1
2017-Sep-21 13:59N 04°27' W 002°32'0 0.0
2017-Sep-21 13:29N 04°27' W 002°32'0 0.0
2017-Sep-21 13:00N 04°27' W 002°32'0 0.0
2017-Sep-21 12:30N 04°27' W 002°32'0 0.0
2017-Sep-21 12:00N 04°27' W 002°32'0 0.1
2017-Sep-21 11:29N 04°27' W 002°32'0 0.0
2017-Sep-21 10:59N 04°27' W 002°32'0 0.1
2017-Sep-21 10:30N 04°27' W 002°32'0 0.1
2017-Sep-21 10:00N 04°27' W 002°32'0 0.1
2017-Sep-21 09:29N 04°27' W 002°32'0 0.0
2017-Sep-21 08:59N 04°27' W 002°32'0 0.2
2017-Sep-21 08:30N 04°27' W 002°32'1 1.8
2017-Sep-21 08:00N 04°27' W 002°33'2 3.9
2017-Sep-21 07:30N 04°28' W 002°35'0 0.3
2017-Sep-21 06:59N 04°28' W 002°35'0 0.0
2017-Sep-21 06:29N 04°28' W 002°35'0 0.0
2017-Sep-21 06:00N 04°28' W 002°35'0 0.0
2017-Sep-21 05:30N 04°28' W 002°35'0 0.1
2017-Sep-21 04:59N 04°28' W 002°35'0 0.1
2017-Sep-21 04:29N 04°28' W 002°35'0 0.1
2017-Sep-21 04:00N 04°28' W 002°35'0 0.2
2017-Sep-21 03:30N 04°28' W 002°34'0 0.0
2017-Sep-21 02:59N 04°28' W 002°34'2 4.2
2017-Sep-21 02:29N 04°26' W 002°36'613.1
2017-Sep-21 02:00N 04°22' W 002°40'713.3
2017-Sep-21 01:30N 04°17' W 002°45'2 4.5
2017-Sep-21 00:59N 04°15' W 002°46'0 0.0
2017-Sep-21 00:30N 04°15' W 002°46'0 0.0
2017-Sep-21 00:01N 04°15' W 002°46'0 0.0
2017-Sep-20 23:29N 04°15' W 002°46'0 0.0
2017-Sep-20 23:00N 04°15' W 002°46'0 0.0
2017-Sep-20 22:29N 04°15' W 002°46'0 0.0
2017-Sep-20 21:59N 04°15' W 002°46'0 0.0
2017-Sep-20 21:30N 04°15' W 002°46'0 0.0
2017-Sep-20 21:00N 04°15' W 002°46'0 0.0
2017-Sep-20 20:29N 04°15' W 002°46'0 0.0
2017-Sep-20 20:00N 04°15' W 002°46'0 0.0
2017-Sep-20 19:29N 04°15' W 002°46'0 0.0
2017-Sep-20 19:00N 04°15' W 002°46'0 0.0
2017-Sep-20 18:30N 04°15' W 002°46'0 0.0
2017-Sep-20 18:00N 04°15' W 002°46'0 0.0
2017-Sep-20 17:29N 04°15' W 002°46'0 0.0
2017-Sep-20 16:59N 04°15' W 002°46'0 0.0
2017-Sep-20 16:30N 04°15' W 002°46'0 0.0
2017-Sep-20 16:00N 04°15' W 002°46'0 0.0
2017-Sep-20 15:29N 04°15' W 002°46'0 0.0
2017-Sep-20 14:59N 04°15' W 002°46'0 0.0
2017-Sep-20 14:00N 04°15' W 002°46'0 0.5
2017-Sep-20 13:29N 04°15' W 002°46'612.8
2017-Sep-20 13:00N 04°19' W 002°42'713.0
2017-Sep-20 12:30N 04°24' W 002°37'611.7
2017-Sep-20 12:00N 04°28' W 002°33'0 0.1
2017-Sep-20 11:29N 04°28' W 002°33'0 0.1
2017-Sep-20 10:59N 04°28' W 002°32'0 0.2
2017-Sep-20 10:31N 04°28' W 002°32'0 0.0
2017-Sep-20 10:00N 04°28' W 002°32'0 0.0
2017-Sep-20 09:30N 04°28' W 002°32'0 0.0
2017-Sep-20 09:00N 04°28' W 002°32'0 0.0
2017-Sep-20 08:30N 04°28' W 002°32'0 0.1
2017-Sep-20 07:59N 04°28' W 002°32'0 0.2
2017-Sep-20 07:31N 04°28' W 002°33'0 0.3
2017-Sep-20 07:00N 04°28' W 002°33'0 0.4
2017-Sep-20 06:29N 04°28' W 002°33'0 0.4
2017-Sep-20 05:57N 04°28' W 002°33'0 0.2
2017-Sep-20 05:30N 04°28' W 002°33'0 0.0
2017-Sep-20 05:00N 04°28' W 002°33'0 0.0
2017-Sep-20 04:29N 04°28' W 002°33'0 0.0
2017-Sep-20 03:59N 04°28' W 002°33'0 0.0
2017-Sep-20 03:29N 04°28' W 002°33'0 0.0
2017-Sep-20 03:00N 04°28' W 002°33'0 0.0
2017-Sep-20 02:30N 04°28' W 002°33'0 0.0
2017-Sep-20 02:00N 04°28' W 002°33'0 0.0
2017-Sep-20 01:27N 04°28' W 002°33'0 0.0
2017-Sep-20 01:00N 04°28' W 002°33'0 0.0
2017-Sep-20 00:30N 04°28' W 002°33'0 0.0
2017-Sep-19 23:59N 04°28' W 002°33'0 0.0
2017-Sep-19 23:29N 04°28' W 002°33'0 0.0
2017-Sep-19 22:59N 04°28' W 002°33'0 0.0
2017-Sep-19 22:30N 04°28' W 002°33'0 0.0
2017-Sep-19 22:00N 04°28' W 002°33'0 0.0
2017-Sep-19 21:29N 04°28' W 002°33'0 0.0
2017-Sep-19 20:59N 04°28' W 002°33'0 0.0
2017-Sep-19 20:30N 04°28' W 002°33'0 0.0
2017-Sep-19 20:00N 04°28' W 002°33'0 0.0
2017-Sep-19 19:30N 04°28' W 002°33'0 0.0
2017-Sep-19 19:00N 04°28' W 002°33'0 0.0
2017-Sep-19 18:29N 04°28' W 002°33'0 0.0
2017-Sep-19 08:02N 04°28' W 002°33'0 0.0
2017-Sep-19 07:37N 04°28' W 002°33'0 0.0
2017-Sep-19 07:25N 04°28' W 002°33'0 0.0
2017-Sep-19 06:02N 04°28' W 002°33'0 0.0
2017-Sep-19 05:59N 04°28' W 002°33'0 0.0
2017-Sep-19 05:30N 04°28' W 002°33'0 0.0
2017-Sep-19 04:59N 04°28' W 002°33'0 0.0
2017-Sep-19 04:29N 04°28' W 002°33'0 0.0
2017-Sep-19 04:00N 04°28' W 002°33'0 0.0
2017-Sep-19 03:30N 04°28' W 002°33'0 0.0
2017-Sep-19 02:59N 04°28' W 002°33'0 0.0
2017-Sep-19 02:31N 04°28' W 002°33'0 0.0
2017-Sep-19 02:00N 04°28' W 002°33'0 0.0
2017-Sep-19 01:30N 04°28' W 002°33'0 0.0
2017-Sep-19 00:57N 04°28' W 002°33'0 0.0
2017-Sep-19 00:29N 04°28' W 002°33'0 0.0
2017-Sep-18 23:59N 04°28' W 002°33'0 0.0
2017-Sep-18 23:30N 04°28' W 002°33'0 0.0
2017-Sep-18 23:00N 04°28' W 002°33'0 0.0
2017-Sep-18 22:29N 04°28' W 002°33'0 0.0
2017-Sep-18 21:59N 04°28' W 002°33'0 0.0
2017-Sep-18 21:30N 04°28' W 002°33'0 0.1
2017-Sep-18 21:00N 04°28' W 002°33'0 0.0
2017-Sep-18 20:30N 04°28' W 002°33'0 0.1
2017-Sep-18 20:00N 04°28' W 002°33'0 0.2
2017-Sep-18 19:30N 04°28' W 002°33'0 0.1
2017-Sep-18 18:59N 04°28' W 002°33'0 0.0
2017-Sep-18 18:29N 04°28' W 002°33'0 0.0
2017-Sep-18 17:59N 04°28' W 002°33'0 0.0
2017-Sep-18 17:30N 04°28' W 002°33'0 0.0
2017-Sep-18 17:00N 04°28' W 002°33'0 0.0
2017-Sep-18 16:30N 04°28' W 002°33'0 0.1
2017-Sep-18 15:59N 04°28' W 002°33'0 0.1
2017-Sep-18 15:29N 04°28' W 002°33'0 0.1
2017-Sep-18 14:59N 04°28' W 002°33'0 0.0
2017-Sep-18 14:30N 04°28' W 002°33'0 0.0
2017-Sep-18 14:00N 04°28' W 002°33'0 0.0
2017-Sep-18 13:30N 04°28' W 002°33'0 0.0
2017-Sep-18 12:59N 04°28' W 002°33'0 0.0
2017-Sep-18 12:29N 04°28' W 002°33'0 0.0
2017-Sep-18 12:01N 04°28' W 002°33'0 0.0
2017-Sep-18 11:30N 04°28' W 002°33'0 0.2
2017-Sep-18 10:59N 04°28' W 002°33'0 0.0
2017-Sep-18 10:29N 04°28' W 002°33'0 0.0
2017-Sep-18 09:59N 04°28' W 002°33'0 0.0
2017-Sep-18 09:29N 04°28' W 002°33'0 0.1
2017-Sep-18 09:00N 04°28' W 002°33'0 0.2
2017-Sep-18 08:30N 04°28' W 002°33'0 0.0
2017-Sep-18 07:59N 04°28' W 002°33'0 0.0
2017-Sep-18 07:29N 04°28' W 002°33'0 0.0
2017-Sep-18 06:59N 04°28' W 002°33'0 0.0
2017-Sep-18 06:30N 04°28' W 002°33'0 0.0
2017-Sep-18 06:00N 04°28' W 002°33'0 0.0
2017-Sep-18 05:29N 04°28' W 002°33'0 0.0
2017-Sep-18 04:59N 04°28' W 002°33'0 0.0
2017-Sep-18 04:29N 04°28' W 002°33'0 0.0
2017-Sep-18 04:00N 04°28' W 002°33'0 0.0
2017-Sep-18 03:30N 04°28' W 002°33'0 0.0
2017-Sep-18 02:58N 04°28' W 002°33'0 0.0
2017-Sep-18 02:30N 04°28' W 002°33'0 0.0
2017-Sep-18 01:59N 04°28' W 002°33'0 0.0
2017-Sep-18 01:31N 04°28' W 002°33'0 0.1
2017-Sep-18 01:00N 04°28' W 002°33'0 0.1
2017-Sep-18 00:30N 04°28' W 002°33'0 0.0
2017-Sep-18 00:00N 04°28' W 002°33'0 0.0
2017-Sep-17 23:29N 04°28' W 002°33'0 0.0
2017-Sep-17 22:59N 04°28' W 002°33'0 0.0
2017-Sep-17 22:30N 04°28' W 002°33'0 0.0
2017-Sep-17 22:00N 04°28' W 002°33'0 0.0
2017-Sep-17 21:29N 04°28' W 002°33'0 0.0
2017-Sep-17 20:59N 04°28' W 002°33'0 0.0
2017-Sep-17 20:29N 04°28' W 002°33'0 0.0
2017-Sep-17 20:00N 04°28' W 002°33'0 0.0
2017-Sep-17 19:30N 04°28' W 002°33'0 0.0
2017-Sep-17 19:00N 04°28' W 002°33'0 0.0
2017-Sep-17 18:29N 04°28' W 002°33'0 0.0
2017-Sep-17 17:59N 04°28' W 002°33'0 0.0
2017-Sep-17 17:30N 04°28' W 002°33'0 0.0
2017-Sep-17 17:00N 04°28' W 002°33'0 0.0
2017-Sep-17 16:30N 04°28' W 002°33'0 0.0
2017-Sep-17 15:59N 04°28' W 002°33'0 0.0
2017-Sep-17 15:29N 04°28' W 002°33'0 0.0
2017-Sep-17 14:59N 04°28' W 002°33'0 0.0
2017-Sep-17 14:29N 04°28' W 002°33'0 0.0
2017-Sep-17 14:00N 04°28' W 002°33'0 0.0
2017-Sep-17 13:30N 04°28' W 002°33'0 0.0
2017-Sep-17 13:00N 04°28' W 002°33'0 0.0
2017-Sep-17 12:30N 04°28' W 002°33'0 0.0
2017-Sep-17 11:59N 04°28' W 002°33'0 0.0
2017-Sep-17 11:29N 04°28' W 002°33'0 0.0
2017-Sep-17 11:00N 04°28' W 002°33'0 0.1
2017-Sep-17 10:30N 04°28' W 002°33'0 0.3
2017-Sep-17 10:00N 04°28' W 002°33'0 0.0
2017-Sep-17 09:29N 04°28' W 002°33'0 0.0
2017-Sep-17 08:59N 04°28' W 002°33'0 0.0
2017-Sep-17 08:29N 04°28' W 002°33'0 0.0
2017-Sep-17 08:01N 04°28' W 002°33'0 0.0
2017-Sep-17 07:30N 04°28' W 002°33'0 0.0
2017-Sep-17 07:00N 04°28' W 002°33'0 0.0
2017-Sep-17 06:29N 04°28' W 002°33'0 0.0
2017-Sep-17 05:59N 04°28' W 002°33'0 0.2
2017-Sep-17 05:29N 04°28' W 002°33'0 0.2
2017-Sep-17 05:01N 04°28' W 002°33'0 0.0
2017-Sep-17 04:30N 04°28' W 002°33'0 0.0
2017-Sep-17 04:00N 04°28' W 002°33'0 0.0
2017-Sep-17 03:29N 04°28' W 002°33'0 0.0
2017-Sep-17 03:01N 04°28' W 002°33'0 0.0
2017-Sep-17 02:31N 04°28' W 002°33'0 0.0
2017-Sep-17 02:00N 04°28' W 002°33'0 0.0
2017-Sep-17 01:29N 04°28' W 002°33'0 0.0
2017-Sep-17 00:59N 04°28' W 002°33'0 0.0
2017-Sep-17 00:29N 04°28' W 002°33'0 0.0
2017-Sep-17 00:00N 04°28' W 002°33'0 0.0
2017-Sep-16 23:30N 04°28' W 002°33'0 0.0
2017-Sep-16 23:00N 04°28' W 002°33'0 0.0
2017-Sep-16 22:30N 04°28' W 002°33'0 0.0
2017-Sep-16 21:59N 04°28' W 002°33'0 0.0
2017-Sep-16 21:29N 04°28' W 002°33'0 0.0
2017-Sep-16 20:59N 04°28' W 002°33'0 0.0
2017-Sep-16 20:29N 04°28' W 002°33'0 0.0
2017-Sep-16 20:00N 04°28' W 002°33'0 0.0
2017-Sep-16 19:30N 04°28' W 002°33'0 0.0
2017-Sep-16 19:00N 04°28' W 002°33'0 0.0
2017-Sep-16 18:30N 04°28' W 002°33'0 0.0
2017-Sep-16 17:59N 04°28' W 002°33'0 0.0
2017-Sep-16 17:31N 04°28' W 002°33'0 0.0
2017-Sep-16 17:00N 04°28' W 002°33'0 0.0
2017-Sep-16 16:30N 04°28' W 002°33'0 0.0
2017-Sep-16 15:59N 04°28' W 002°33'0 0.0
2017-Sep-16 15:29N 04°28' W 002°33'0 0.0
2017-Sep-16 15:01N 04°28' W 002°33'0 0.0
2017-Sep-16 14:31N 04°28' W 002°33'0 0.0
2017-Sep-16 14:01N 04°28' W 002°33'0 0.0
2017-Sep-16 13:30N 04°28' W 002°33'0 0.0
2017-Sep-16 13:00N 04°28' W 002°33'0 0.0
2017-Sep-16 12:29N 04°28' W 002°33'0 0.0
2017-Sep-16 11:59N 04°28' W 002°33'0 0.0
2017-Sep-16 11:30N 04°28' W 002°33'0 0.0
2017-Sep-16 11:00N 04°28' W 002°33'0 0.0
2017-Sep-16 10:30N 04°28' W 002°33'0 0.0
2017-Sep-16 09:59N 04°28' W 002°33'0 0.0
2017-Sep-16 09:31N 04°28' W 002°33'0 0.0
2017-Sep-16 09:00N 04°28' W 002°33'0 0.0
2017-Sep-16 08:30N 04°28' W 002°33'0 0.0
2017-Sep-16 08:00N 04°28' W 002°33'0 0.0
2017-Sep-16 07:30N 04°28' W 002°33'0 0.0
2017-Sep-16 06:59N 04°28' W 002°33'0 0.0
2017-Sep-16 06:30N 04°28' W 002°33'0 0.0
2017-Sep-16 06:00N 04°28' W 002°33'0 0.0
2017-Sep-16 05:30N 04°28' W 002°33'0 0.0
2017-Sep-16 04:57N 04°28' W 002°33'0 0.0
2017-Sep-16 04:29N 04°28' W 002°33'0 0.0
2017-Sep-16 03:53N 04°28' W 002°33'0 0.0
2017-Sep-16 03:30N 04°28' W 002°33'0 0.0
2017-Sep-16 03:00N 04°28' W 002°33'0 0.0
2017-Sep-16 02:30N 04°28' W 002°33'0 0.0
2017-Sep-16 01:59N 04°28' W 002°33'0 0.0
2017-Sep-16 01:30N 04°28' W 002°33'0 0.0
2017-Sep-16 01:00N 04°28' W 002°33'0 0.0
2017-Sep-16 00:30N 04°28' W 002°33'0 0.0
2017-Sep-15 23:59N 04°28' W 002°33'0 0.0
2017-Sep-15 23:31N 04°28' W 002°33'0 0.0
2017-Sep-15 23:00N 04°28' W 002°33'0 0.0
2017-Sep-15 22:29N 04°28' W 002°33'0 0.0
2017-Sep-15 21:59N 04°28' W 002°33'0 0.0
2017-Sep-15 21:31N 04°28' W 002°33'0 0.0
2017-Sep-15 21:01N 04°28' W 002°33'0 0.0
2017-Sep-15 20:30N 04°28' W 002°33'0 0.0
2017-Sep-15 20:00N 04°28' W 002°33'0 0.0
2017-Sep-15 19:30N 04°28' W 002°33'0 0.0
2017-Sep-15 18:59N 04°28' W 002°33'0 0.0
2017-Sep-15 18:29N 04°28' W 002°33'0 0.1
2017-Sep-15 18:00N 04°28' W 002°33'0 0.3
2017-Sep-15 17:30N 04°28' W 002°33'0 0.0
2017-Sep-15 17:00N 04°28' W 002°33'0 0.0
2017-Sep-15 16:29N 04°28' W 002°33'0 0.0
2017-Sep-15 15:59N 04°28' W 002°33'0 0.0
2017-Sep-15 15:30N 04°28' W 002°33'0 0.0
2017-Sep-15 15:00N 04°28' W 002°33'0 0.0
2017-Sep-15 14:29N 04°28' W 002°33'0 0.0
2017-Sep-15 13:59N 04°28' W 002°33'0 0.0
2017-Sep-15 13:31N 04°28' W 002°33'0 0.0
2017-Sep-15 13:00N 04°28' W 002°33'0 0.0
2017-Sep-15 12:30N 04°28' W 002°33'0 0.0
2017-Sep-15 12:00N 04°28' W 002°33'0 0.0
2017-Sep-15 11:29N 04°28' W 002°33'0 0.0
2017-Sep-15 10:59N 04°28' W 002°33'0 0.0
2017-Sep-15 10:30N 04°28' W 002°33'0 0.0
2017-Sep-15 10:00N 04°28' W 002°33'0 0.0
2017-Sep-15 09:30N 04°28' W 002°33'0 0.0
2017-Sep-15 08:59N 04°28' W 002°33'0 0.0
2017-Sep-15 08:29N 04°28' W 002°33'0 0.0
2017-Sep-15 08:00N 04°28' W 002°33'0 0.0
2017-Sep-15 07:30N 04°28' W 002°33'0 0.4
2017-Sep-15 07:00N 04°28' W 002°33'0 0.3
2017-Sep-15 06:29N 04°28' W 002°33'0 0.0
2017-Sep-15 05:59N 04°28' W 002°33'0 0.3
2017-Sep-15 05:30N 04°28' W 002°33'0 0.5
2017-Sep-15 05:00N 04°28' W 002°32'0 0.4
2017-Sep-15 04:30N 04°28' W 002°32'0 0.1
2017-Sep-15 04:00N 04°28' W 002°32'0 0.3
2017-Sep-15 03:29N 04°28' W 002°32'0 0.4
2017-Sep-15 02:59N 04°28' W 002°33'0 0.1
2017-Sep-15 02:30N 04°28' W 002°33'0 0.0
2017-Sep-15 02:00N 04°28' W 002°33'0 0.0
2017-Sep-15 01:29N 04°28' W 002°33'0 0.0
2017-Sep-15 00:59N 04°28' W 002°33'1 1.8
2017-Sep-15 00:29N 04°28' W 002°32'0 0.3
2017-Sep-15 00:00N 04°27' W 002°32'0 0.1
2017-Sep-14 23:30N 04°27' W 002°32'0 0.1
2017-Sep-14 22:59N 04°27' W 002°32'0 0.0
2017-Sep-14 22:29N 04°27' W 002°32'0 0.2
2017-Sep-14 21:59N 04°27' W 002°32'2 3.6
2017-Sep-14 21:30N 04°29' W 002°30'0 0.0
2017-Sep-14 21:00N 04°29' W 002°30'0 0.1
2017-Sep-14 20:30N 04°29' W 002°30'0 0.0
2017-Sep-14 19:59N 04°29' W 002°30'0 0.2
2017-Sep-14 19:29N 04°29' W 002°30'0 0.1
2017-Sep-14 19:00N 04°29' W 002°30'0 0.1
2017-Sep-14 18:30N 04°29' W 002°30'0 0.0
2017-Sep-14 17:59N 04°29' W 002°30'0 0.0
2017-Sep-14 17:25N 04°29' W 002°30'0 0.0
2017-Sep-14 16:59N 04°29' W 002°30'0 0.0
2017-Sep-14 16:29N 04°29' W 002°30'0 0.0
2017-Sep-14 16:00N 04°29' W 002°30'0 0.0
2017-Sep-14 15:30N 04°29' W 002°30'0 0.0
2017-Sep-14 15:00N 04°29' W 002°30'2 3.1
2017-Sep-14 14:29N 04°28' W 002°32'1 2.3
2017-Sep-14 13:59N 04°28' W 002°33'0 0.3
2017-Sep-14 13:30N 04°28' W 002°33'0 0.1
2017-Sep-14 13:00N 04°28' W 002°33'0 0.2
2017-Sep-14 12:29N 04°28' W 002°33'0 0.2
2017-Sep-14 11:57N 04°28' W 002°33'0 0.1
2017-Sep-14 11:27N 04°28' W 002°33'0 0.1
2017-Sep-14 11:00N 04°28' W 002°33'0 0.0
2017-Sep-14 10:30N 04°28' W 002°33'0 0.1
2017-Sep-14 09:59N 04°28' W 002°33'0 0.5
2017-Sep-14 09:29N 04°28' W 002°33'1 2.2
2017-Sep-14 08:59N 04°29' W 002°32'1 0.9
2017-Sep-14 08:25N 04°29' W 002°32'0 0.0
2017-Sep-14 08:00N 04°29' W 002°32'0 0.0
2017-Sep-14 07:30N 04°29' W 002°32'0 0.0
2017-Sep-14 06:59N 04°29' W 002°32'0 0.0
2017-Sep-14 06:29N 04°29' W 002°32'2 3.4
2017-Sep-14 06:00N 04°30' W 002°30'611.2
2017-Sep-14 05:30N 04°31' W 002°25'611.4
2017-Sep-14 05:00N 04°33' W 002°19'611.7
2017-Sep-14 04:29N 04°34' W 002°13'611.9
2017-Sep-14 04:01N 04°34' W 002°08'612.0
2017-Sep-14 03:30N 04°36' W 002°02'712.1
2017-Sep-14 02:56N 04°38' W 001°55'1012.5
2017-Sep-14 02:10N 04°44' W 001°48'212.4
2017-Sep-14 02:00N 04°45' W 001°46'711.7
2017-Sep-14 01:21N 04°52' W 001°42'22 1.2
2017-Sep-13 06:20N 04°36' W 001°58'412.4
2017-Sep-13 05:59N 04°35' W 002°03'612.2
2017-Sep-13 05:29N 04°34' W 002°08'612.0
2017-Sep-13 04:59N 04°32' W 002°14'611.9
2017-Sep-13 04:30N 04°31' W 002°20'611.7
2017-Sep-13 04:00N 04°31' W 002°26'510.1
2017-Sep-13 03:30N 04°29' W 002°30'0 0.2
2017-Sep-13 02:37N 04°29' W 002°30'0 0.0
2017-Sep-13 02:29N 04°29' W 002°30'0 0.0
2017-Sep-13 02:00N 04°29' W 002°30'0 0.0
2017-Sep-13 01:30N 04°29' W 002°30'0 0.0
2017-Sep-13 00:59N 04°29' W 002°30'0 0.0
2017-Sep-13 00:29N 04°29' W 002°30'0 0.0
2017-Sep-12 23:59N 04°29' W 002°30'0 0.1
2017-Sep-12 23:29N 04°29' W 002°30'0 0.1
2017-Sep-12 23:00N 04°29' W 002°30'0 0.0
2017-Sep-12 22:30N 04°29' W 002°30'0 0.0
2017-Sep-12 21:59N 04°29' W 002°30'0 0.1
2017-Sep-12 21:29N 04°29' W 002°30'1 2.3
2017-Sep-12 21:01N 04°29' W 002°31'1 2.9
2017-Sep-12 20:30N 04°28' W 002°33'0 0.7
2017-Sep-12 19:59N 04°28' W 002°33'0 0.1
2017-Sep-12 19:29N 04°28' W 002°33'0 0.0
2017-Sep-12 18:59N 04°28' W 002°33'0 0.1
2017-Sep-12 18:30N 04°28' W 002°33'0 0.1
2017-Sep-12 18:00N 04°28' W 002°33'0 0.1
2017-Sep-12 17:30N 04°28' W 002°33'0 0.0
2017-Sep-12 16:59N 04°28' W 002°33'0 0.0
2017-Sep-12 16:29N 04°28' W 002°33'0 0.2
2017-Sep-12 15:59N 04°28' W 002°33'0 0.6
2017-Sep-12 15:30N 04°28' W 002°33'0 0.2
2017-Sep-12 15:00N 04°28' W 002°33'2 4.4
2017-Sep-12 14:29N 04°29' W 002°31'0 0.2
2017-Sep-12 13:59N 04°29' W 002°30'0 0.0
2017-Sep-12 13:29N 04°29' W 002°30'0 0.0
2017-Sep-12 13:00N 04°29' W 002°30'0 0.0
2017-Sep-12 12:30N 04°29' W 002°30'0 0.0
2017-Sep-12 12:00N 04°29' W 002°30'0 0.0
2017-Sep-12 11:30N 04°29' W 002°30'0 0.0
2017-Sep-12 10:59N 04°29' W 002°30'0 0.0
2017-Sep-12 10:29N 04°29' W 002°30'0 0.0
2017-Sep-12 09:59N 04°29' W 002°30'0 0.1
2017-Sep-12 09:30N 04°29' W 002°30'0 0.1
2017-Sep-12 09:00N 04°29' W 002°30'0 0.1
2017-Sep-12 08:30N 04°29' W 002°30'0 0.0
2017-Sep-12 07:59N 04°29' W 002°30'0 0.1
2017-Sep-12 07:29N 04°29' W 002°30'0 0.2
2017-Sep-12 06:59N 04°29' W 002°30'0 0.2
2017-Sep-12 06:30N 04°29' W 002°30'0 0.1
2017-Sep-12 06:00N 04°29' W 002°30'0 0.1
2017-Sep-12 05:30N 04°29' W 002°31'1 2.0
2017-Sep-12 04:59N 04°28' W 002°31'1 1.9
2017-Sep-12 04:29N 04°28' W 002°32'0 0.0
2017-Sep-12 03:59N 04°28' W 002°32'0 0.0
2017-Sep-12 03:31N 04°28' W 002°32'0 0.1
2017-Sep-12 03:00N 04°28' W 002°32'0 0.3
2017-Sep-12 02:30N 04°28' W 002°32'0 0.1
2017-Sep-12 01:59N 04°28' W 002°32'  
Track history (hours):
 
Tides and Currents Weather Stations Pressure Air Temp Water Temp Dewpoint Dewpoint Depression Visibility Wind Speed Wind Dir Waves Ship Positions

Lewek Connector

Last reported at 2017-Sep-22 01:59 UTC. Time now 2017-Sep-22 02:43 UTC.
Position N 04°29' W 002°30'.

Length 157 m; draft 8.4 m.

Type: Other ship. MMSI: 373479000.

Date/timePositionNaut miles runAvg speedWind from/ knotsBaromVisibWave heightAir tempDewpointWater temp
2017-Sep-22 01:59N 04°29' W 002°30'0 0.0
2017-Sep-22 01:29N 04°29' W 002°30'0 0.1
2017-Sep-22 01:00N 04°29' W 002°30'0 0.0
2017-Sep-22 00:30N 04°29' W 002°30'0 0.0
2017-Sep-21 23:59N 04°29' W 002°30'0 0.2
2017-Sep-21 23:29N 04°29' W 002°30'0 0.9
2017-Sep-21 22:59N 04°28' W 002°31'1 2.3
2017-Sep-21 22:29N 04°29' W 002°31'1 2.5
2017-Sep-21 22:00N 04°30' W 002°32'0 0.0
2017-Sep-21 21:30N 04°30' W 002°32'0 0.0
2017-Sep-21 21:00N 04°30' W 002°32'0 0.0
2017-Sep-21 20:29N 04°30' W 002°32'0 0.0
2017-Sep-21 19:59N 04°30' W 002°32'0 0.0
2017-Sep-21 19:29N 04°30' W 002°32'0 0.1
2017-Sep-21 19:00N 04°30' W 002°32'0 0.0
2017-Sep-21 18:30N 04°30' W 002°32'0 0.5
2017-Sep-21 18:00N 04°30' W 002°32'0 0.5
2017-Sep-21 17:29N 04°30' W 002°32'0 0.2
2017-Sep-21 16:59N 04°30' W 002°32'0 0.0
2017-Sep-21 16:29N 04°30' W 002°32'0 0.1
2017-Sep-21 16:00N 04°30' W 002°32'1 1.4
2017-Sep-21 15:30N 04°29' W 002°32'2 4.0
2017-Sep-21 15:00N 04°27' W 002°32'0 0.0
2017-Sep-21 14:29N 04°27' W 002°32'0 0.1
2017-Sep-21 13:59N 04°27' W 002°32'0 0.0
2017-Sep-21 13:29N 04°27' W 002°32'0 0.0
2017-Sep-21 13:00N 04°27' W 002°32'0 0.0
2017-Sep-21 12:30N 04°27' W 002°32'0 0.0
2017-Sep-21 12:00N 04°27' W 002°32'0 0.1
2017-Sep-21 11:29N 04°27' W 002°32'0 0.0
2017-Sep-21 10:59N 04°27' W 002°32'0 0.1
2017-Sep-21 10:30N 04°27' W 002°32'0 0.1
2017-Sep-21 10:00N 04°27' W 002°32'0 0.1
2017-Sep-21 09:29N 04°27' W 002°32'0 0.0
2017-Sep-21 08:59N 04°27' W 002°32'0 0.2
2017-Sep-21 08:30N 04°27' W 002°32'1 1.8
2017-Sep-21 08:00N 04°27' W 002°33'2 3.9
2017-Sep-21 07:30N 04°28' W 002°35'0 0.3
2017-Sep-21 06:59N 04°28' W 002°35'0 0.0
2017-Sep-21 06:29N 04°28' W 002°35'0 0.0
2017-Sep-21 06:00N 04°28' W 002°35'0 0.0
2017-Sep-21 05:30N 04°28' W 002°35'0 0.1
2017-Sep-21 04:59N 04°28' W 002°35'0 0.1
2017-Sep-21 04:29N 04°28' W 002°35'0 0.1
2017-Sep-21 04:00N 04°28' W 002°35'0 0.2
2017-Sep-21 03:30N 04°28' W 002°34'0 0.0
2017-Sep-21 02:59N 04°28' W 002°34'2 4.2
2017-Sep-21 02:29N 04°26' W 002°36'613.1
2017-Sep-21 02:00N 04°22' W 002°40'713.3
2017-Sep-21 01:30N 04°17' W 002°45'2 4.5
2017-Sep-21 00:59N 04°15' W 002°46'0 0.0
2017-Sep-21 00:30N 04°15' W 002°46'0 0.0
2017-Sep-21 00:01N 04°15' W 002°46'0 0.0
2017-Sep-20 23:29N 04°15' W 002°46'0 0.0
2017-Sep-20 23:00N 04°15' W 002°46'0 0.0
2017-Sep-20 22:29N 04°15' W 002°46'0 0.0
2017-Sep-20 21:59N 04°15' W 002°46'0 0.0
2017-Sep-20 21:30N 04°15' W 002°46'0 0.0
2017-Sep-20 21:00N 04°15' W 002°46'0 0.0
2017-Sep-20 20:29N 04°15' W 002°46'0 0.0
2017-Sep-20 20:00N 04°15' W 002°46'0 0.0
2017-Sep-20 19:29N 04°15' W 002°46'0 0.0
2017-Sep-20 19:00N 04°15' W 002°46'0 0.0
2017-Sep-20 18:30N 04°15' W 002°46'0 0.0
2017-Sep-20 18:00N 04°15' W 002°46'0 0.0
2017-Sep-20 17:29N 04°15' W 002°46'0 0.0
2017-Sep-20 16:59N 04°15' W 002°46'0 0.0
2017-Sep-20 16:30N 04°15' W 002°46'0 0.0
2017-Sep-20 16:00N 04°15' W 002°46'0 0.0
2017-Sep-20 15:29N 04°15' W 002°46'0 0.0
2017-Sep-20 14:59N 04°15' W 002°46'0 0.0
2017-Sep-20 14:00N 04°15' W 002°46'0 0.5
2017-Sep-20 13:29N 04°15' W 002°46'612.8
2017-Sep-20 13:00N 04°19' W 002°42'713.0
2017-Sep-20 12:30N 04°24' W 002°37'611.7
2017-Sep-20 12:00N 04°28' W 002°33'0 0.1
2017-Sep-20 11:29N 04°28' W 002°33'0 0.1
2017-Sep-20 10:59N 04°28' W 002°32'0 0.2
2017-Sep-20 10:31N 04°28' W 002°32'0 0.0
2017-Sep-20 10:00N 04°28' W 002°32'0 0.0
2017-Sep-20 09:30N 04°28' W 002°32'0 0.0
2017-Sep-20 09:00N 04°28' W 002°32'0 0.0
2017-Sep-20 08:30N 04°28' W 002°32'0 0.1
2017-Sep-20 07:59N 04°28' W 002°32'0 0.2
2017-Sep-20 07:31N 04°28' W 002°33'0 0.3
2017-Sep-20 07:00N 04°28' W 002°33'0 0.4
2017-Sep-20 06:29N 04°28' W 002°33'0 0.4
2017-Sep-20 05:57N 04°28' W 002°33'0 0.2
2017-Sep-20 05:30N 04°28' W 002°33'0 0.0
2017-Sep-20 05:00N 04°28' W 002°33'0 0.0
2017-Sep-20 04:29N 04°28' W 002°33'0 0.0
2017-Sep-20 03:59N 04°28' W 002°33'0 0.0
2017-Sep-20 03:29N 04°28' W 002°33'0 0.0
2017-Sep-20 03:00N 04°28' W 002°33'0 0.0
2017-Sep-20 02:30N 04°28' W 002°33'0 0.0
2017-Sep-20 02:00N 04°28' W 002°33'0 0.0
2017-Sep-20 01:27N 04°28' W 002°33'0 0.0
2017-Sep-20 01:00N 04°28' W 002°33'0 0.0
2017-Sep-20 00:30N 04°28' W 002°33'0 0.0
2017-Sep-19 23:59N 04°28' W 002°33'0 0.0
2017-Sep-19 23:29N 04°28' W 002°33'0 0.0
2017-Sep-19 22:59N 04°28' W 002°33'0 0.0
2017-Sep-19 22:30N 04°28' W 002°33'0 0.0
2017-Sep-19 22:00N 04°28' W 002°33'0 0.0
2017-Sep-19 21:29N 04°28' W 002°33'0 0.0
2017-Sep-19 20:59N 04°28' W 002°33'0 0.0
2017-Sep-19 20:30N 04°28' W 002°33'0 0.0
2017-Sep-19 20:00N 04°28' W 002°33'0 0.0
2017-Sep-19 19:30N 04°28' W 002°33'0 0.0
2017-Sep-19 19:00N 04°28' W 002°33'0 0.0
2017-Sep-19 18:29N 04°28' W 002°33'0 0.0
2017-Sep-19 08:02N 04°28' W 002°33'0 0.0
2017-Sep-19 07:37N 04°28' W 002°33'0 0.0
2017-Sep-19 07:25N 04°28' W 002°33'0 0.0
2017-Sep-19 06:02N 04°28' W 002°33'0 0.0
2017-Sep-19 05:59N 04°28' W 002°33'0 0.0
2017-Sep-19 05:30N 04°28' W 002°33'0 0.0
2017-Sep-19 04:59N 04°28' W 002°33'0 0.0
2017-Sep-19 04:29N 04°28' W 002°33'0 0.0
2017-Sep-19 04:00N 04°28' W 002°33'0 0.0
2017-Sep-19 03:30N 04°28' W 002°33'0 0.0
2017-Sep-19 02:59N 04°28' W 002°33'0 0.0
2017-Sep-19 02:31N 04°28' W 002°33'0 0.0
2017-Sep-19 02:00N 04°28' W 002°33'0 0.0
2017-Sep-19 01:30N 04°28' W 002°33'0 0.0
2017-Sep-19 00:57N 04°28' W 002°33'0 0.0
2017-Sep-19 00:29N 04°28' W 002°33'0 0.0
2017-Sep-18 23:59N 04°28' W 002°33'0 0.0
2017-Sep-18 23:30N 04°28' W 002°33'0 0.0
2017-Sep-18 23:00N 04°28' W 002°33'0 0.0
2017-Sep-18 22:29N 04°28' W 002°33'0 0.0
2017-Sep-18 21:59N 04°28' W 002°33'0 0.0
2017-Sep-18 21:30N 04°28' W 002°33'0 0.1
2017-Sep-18 21:00N 04°28' W 002°33'0 0.0
2017-Sep-18 20:30N 04°28' W 002°33'0 0.1
2017-Sep-18 20:00N 04°28' W 002°33'0 0.2
2017-Sep-18 19:30N 04°28' W 002°33'0 0.1
2017-Sep-18 18:59N 04°28' W 002°33'0 0.0
2017-Sep-18 18:29N 04°28' W 002°33'0 0.0
2017-Sep-18 17:59N 04°28' W 002°33'0 0.0
2017-Sep-18 17:30N 04°28' W 002°33'0 0.0
2017-Sep-18 17:00N 04°28' W 002°33'0 0.0
2017-Sep-18 16:30N 04°28' W 002°33'0 0.1
2017-Sep-18 15:59N 04°28' W 002°33'0 0.1
2017-Sep-18 15:29N 04°28' W 002°33'0 0.1
2017-Sep-18 14:59N 04°28' W 002°33'0 0.0
2017-Sep-18 14:30N 04°28' W 002°33'0 0.0
2017-Sep-18 14:00N 04°28' W 002°33'0 0.0
2017-Sep-18 13:30N 04°28' W 002°33'0 0.0
2017-Sep-18 12:59N 04°28' W 002°33'0 0.0
2017-Sep-18 12:29N 04°28' W 002°33'0 0.0
2017-Sep-18 12:01N 04°28' W 002°33'0 0.0
2017-Sep-18 11:30N 04°28' W 002°33'0 0.2
2017-Sep-18 10:59N 04°28' W 002°33'0 0.0
2017-Sep-18 10:29N 04°28' W 002°33'0 0.0
2017-Sep-18 09:59N 04°28' W 002°33'0 0.0
2017-Sep-18 09:29N 04°28' W 002°33'0 0.1
2017-Sep-18 09:00N 04°28' W 002°33'0 0.2
2017-Sep-18 08:30N 04°28' W 002°33'0 0.0
2017-Sep-18 07:59N 04°28' W 002°33'0 0.0
2017-Sep-18 07:29N 04°28' W 002°33'0 0.0
2017-Sep-18 06:59N 04°28' W 002°33'0 0.0
2017-Sep-18 06:30N 04°28' W 002°33'0 0.0
2017-Sep-18 06:00N 04°28' W 002°33'0 0.0
2017-Sep-18 05:29N 04°28' W 002°33'0 0.0
2017-Sep-18 04:59N 04°28' W 002°33'0 0.0
2017-Sep-18 04:29N 04°28' W 002°33'0 0.0
2017-Sep-18 04:00N 04°28' W 002°33'0 0.0
2017-Sep-18 03:30N 04°28' W 002°33'0 0.0
2017-Sep-18 02:58N 04°28' W 002°33'0 0.0
2017-Sep-18 02:30N 04°28' W 002°33'0 0.0
2017-Sep-18 01:59N 04°28' W 002°33'0 0.0
2017-Sep-18 01:31N 04°28' W 002°33'0 0.1
2017-Sep-18 01:00N 04°28' W 002°33'0 0.1
2017-Sep-18 00:30N 04°28' W 002°33'0 0.0
2017-Sep-18 00:00N 04°28' W 002°33'0 0.0
2017-Sep-17 23:29N 04°28' W 002°33'0 0.0
2017-Sep-17 22:59N 04°28' W 002°33'0 0.0
2017-Sep-17 22:30N 04°28' W 002°33'0 0.0
2017-Sep-17 22:00N 04°28' W 002°33'0 0.0
2017-Sep-17 21:29N 04°28' W 002°33'0 0.0
2017-Sep-17 20:59N 04°28' W 002°33'0 0.0
2017-Sep-17 20:29N 04°28' W 002°33'0 0.0
2017-Sep-17 20:00N 04°28' W 002°33'0 0.0
2017-Sep-17 19:30N 04°28' W 002°33'0 0.0
2017-Sep-17 19:00N 04°28' W 002°33'0 0.0
2017-Sep-17 18:29N 04°28' W 002°33'0 0.0
2017-Sep-17 17:59N 04°28' W 002°33'0 0.0
2017-Sep-17 17:30N 04°28' W 002°33'0 0.0
2017-Sep-17 17:00N 04°28' W 002°33'0 0.0
2017-Sep-17 16:30N 04°28' W 002°33'0 0.0
2017-Sep-17 15:59N 04°28' W 002°33'0 0.0
2017-Sep-17 15:29N 04°28' W 002°33'0 0.0
2017-Sep-17 14:59N 04°28' W 002°33'0 0.0
2017-Sep-17 14:29N 04°28' W 002°33'0 0.0
2017-Sep-17 14:00N 04°28' W 002°33'0 0.0
2017-Sep-17 13:30N 04°28' W 002°33'0 0.0
2017-Sep-17 13:00N 04°28' W 002°33'0 0.0
2017-Sep-17 12:30N 04°28' W 002°33'0 0.0
2017-Sep-17 11:59N 04°28' W 002°33'0 0.0
2017-Sep-17 11:29N 04°28' W 002°33'0 0.0
2017-Sep-17 11:00N 04°28' W 002°33'0 0.1
2017-Sep-17 10:30N 04°28' W 002°33'0 0.3
2017-Sep-17 10:00N 04°28' W 002°33'0 0.0
2017-Sep-17 09:29N 04°28' W 002°33'0 0.0
2017-Sep-17 08:59N 04°28' W 002°33'0 0.0
2017-Sep-17 08:29N 04°28' W 002°33'0 0.0
2017-Sep-17 08:01N 04°28' W 002°33'0 0.0
2017-Sep-17 07:30N 04°28' W 002°33'0 0.0
2017-Sep-17 07:00N 04°28' W 002°33'0 0.0
2017-Sep-17 06:29N 04°28' W 002°33'0 0.0
2017-Sep-17 05:59N 04°28' W 002°33'0 0.2
2017-Sep-17 05:29N 04°28' W 002°33'0 0.2
2017-Sep-17 05:01N 04°28' W 002°33'0 0.0
2017-Sep-17 04:30N 04°28' W 002°33'0 0.0
2017-Sep-17 04:00N 04°28' W 002°33'0 0.0
2017-Sep-17 03:29N 04°28' W 002°33'0 0.0
2017-Sep-17 03:01N 04°28' W 002°33'0 0.0
2017-Sep-17 02:31N 04°28' W 002°33'0 0.0
2017-Sep-17 02:00N 04°28' W 002°33'0 0.0
2017-Sep-17 01:29N 04°28' W 002°33'0 0.0
2017-Sep-17 00:59N 04°28' W 002°33'0 0.0
2017-Sep-17 00:29N 04°28' W 002°33'0 0.0
2017-Sep-17 00:00N 04°28' W 002°33'0 0.0
2017-Sep-16 23:30N 04°28' W 002°33'0 0.0
2017-Sep-16 23:00N 04°28' W 002°33'0 0.0
2017-Sep-16 22:30N 04°28' W 002°33'0 0.0
2017-Sep-16 21:59N 04°28' W 002°33'0 0.0
2017-Sep-16 21:29N 04°28' W 002°33'0 0.0
2017-Sep-16 20:59N 04°28' W 002°33'0 0.0
2017-Sep-16 20:29N 04°28' W 002°33'0 0.0
2017-Sep-16 20:00N 04°28' W 002°33'0 0.0
2017-Sep-16 19:30N 04°28' W 002°33'0 0.0
2017-Sep-16 19:00N 04°28' W 002°33'0 0.0
2017-Sep-16 18:30N 04°28' W 002°33'0 0.0
2017-Sep-16 17:59N 04°28' W 002°33'0 0.0
2017-Sep-16 17:31N 04°28' W 002°33'0 0.0
2017-Sep-16 17:00N 04°28' W 002°33'0 0.0
2017-Sep-16 16:30N 04°28' W 002°33'0 0.0
2017-Sep-16 15:59N 04°28' W 002°33'0 0.0
2017-Sep-16 15:29N 04°28' W 002°33'0 0.0
2017-Sep-16 15:01N 04°28' W 002°33'0 0.0
2017-Sep-16 14:31N 04°28' W 002°33'0 0.0
2017-Sep-16 14:01N 04°28' W 002°33'0 0.0
2017-Sep-16 13:30N 04°28' W 002°33'0 0.0
2017-Sep-16 13:00N 04°28' W 002°33'0 0.0
2017-Sep-16 12:29N 04°28' W 002°33'0 0.0
2017-Sep-16 11:59N 04°28' W 002°33'0 0.0
2017-Sep-16 11:30N 04°28' W 002°33'0 0.0
2017-Sep-16 11:00N 04°28' W 002°33'0 0.0
2017-Sep-16 10:30N 04°28' W 002°33'0 0.0
2017-Sep-16 09:59N 04°28' W 002°33'0 0.0
2017-Sep-16 09:31N 04°28' W 002°33'0 0.0
2017-Sep-16 09:00N 04°28' W 002°33'0 0.0
2017-Sep-16 08:30N 04°28' W 002°33'0 0.0
2017-Sep-16 08:00N 04°28' W 002°33'0 0.0
2017-Sep-16 07:30N 04°28' W 002°33'0 0.0
2017-Sep-16 06:59N 04°28' W 002°33'0 0.0
2017-Sep-16 06:30N 04°28' W 002°33'0 0.0
2017-Sep-16 06:00N 04°28' W 002°33'0 0.0
2017-Sep-16 05:30N 04°28' W 002°33'0 0.0
2017-Sep-16 04:57N 04°28' W 002°33'0 0.0
2017-Sep-16 04:29N 04°28' W 002°33'0 0.0
2017-Sep-16 03:53N 04°28' W 002°33'0 0.0
2017-Sep-16 03:30N 04°28' W 002°33'0 0.0
2017-Sep-16 03:00N 04°28' W 002°33'0 0.0
2017-Sep-16 02:30N 04°28' W 002°33'0 0.0
2017-Sep-16 01:59N 04°28' W 002°33'0 0.0
2017-Sep-16 01:30N 04°28' W 002°33'0 0.0
2017-Sep-16 01:00N 04°28' W 002°33'0 0.0
2017-Sep-16 00:30N 04°28' W 002°33'0 0.0
2017-Sep-15 23:59N 04°28' W 002°33'0 0.0
2017-Sep-15 23:31N 04°28' W 002°33'0 0.0
2017-Sep-15 23:00N 04°28' W 002°33'0 0.0
2017-Sep-15 22:29N 04°28' W 002°33'0 0.0
2017-Sep-15 21:59N 04°28' W 002°33'0 0.0
2017-Sep-15 21:31N 04°28' W 002°33'0 0.0
2017-Sep-15 21:01N 04°28' W 002°33'0 0.0
2017-Sep-15 20:30N 04°28' W 002°33'0 0.0
2017-Sep-15 20:00N 04°28' W 002°33'0 0.0
2017-Sep-15 19:30N 04°28' W 002°33'0 0.0
2017-Sep-15 18:59N 04°28' W 002°33'0 0.0
2017-Sep-15 18:29N 04°28' W 002°33'0 0.1
2017-Sep-15 18:00N 04°28' W 002°33'0 0.3
2017-Sep-15 17:30N 04°28' W 002°33'0 0.0
2017-Sep-15 17:00N 04°28' W 002°33'0 0.0
2017-Sep-15 16:29N 04°28' W 002°33'0 0.0
2017-Sep-15 15:59N 04°28' W 002°33'0 0.0
2017-Sep-15 15:30N 04°28' W 002°33'0 0.0
2017-Sep-15 15:00N 04°28' W 002°33'0 0.0
2017-Sep-15 14:29N 04°28' W 002°33'0 0.0
2017-Sep-15 13:59N 04°28' W 002°33'0 0.0
2017-Sep-15 13:31N 04°28' W 002°33'0 0.0
2017-Sep-15 13:00N 04°28' W 002°33'0 0.0
2017-Sep-15 12:30N 04°28' W 002°33'0 0.0
2017-Sep-15 12:00N 04°28' W 002°33'0 0.0
2017-Sep-15 11:29N 04°28' W 002°33'0 0.0
2017-Sep-15 10:59N 04°28' W 002°33'0 0.0
2017-Sep-15 10:30N 04°28' W 002°33'0 0.0
2017-Sep-15 10:00N 04°28' W 002°33'0 0.0
2017-Sep-15 09:30N 04°28' W 002°33'0 0.0
2017-Sep-15 08:59N 04°28' W 002°33'0 0.0
2017-Sep-15 08:29N 04°28' W 002°33'0 0.0
2017-Sep-15 08:00N 04°28' W 002°33'0 0.0
2017-Sep-15 07:30N 04°28' W 002°33'0 0.4
2017-Sep-15 07:00N 04°28' W 002°33'0 0.3
2017-Sep-15 06:29N 04°28' W 002°33'0 0.0
2017-Sep-15 05:59N 04°28' W 002°33'0 0.3
2017-Sep-15 05:30N 04°28' W 002°33'0 0.5
2017-Sep-15 05:00N 04°28' W 002°32'0 0.4
2017-Sep-15 04:30N 04°28' W 002°32'0 0.1
2017-Sep-15 04:00N 04°28' W 002°32'0 0.3
2017-Sep-15 03:29N 04°28' W 002°32'0 0.4
2017-Sep-15 02:59N 04°28' W 002°33'0 0.1
2017-Sep-15 02:30N 04°28' W 002°33'0 0.0
2017-Sep-15 02:00N 04°28' W 002°33'0 0.0
2017-Sep-15 01:29N 04°28' W 002°33'0 0.0
2017-Sep-15 00:59N 04°28' W 002°33'1 1.8
2017-Sep-15 00:29N 04°28' W 002°32'0 0.3
2017-Sep-15 00:00N 04°27' W 002°32'0 0.1
2017-Sep-14 23:30N 04°27' W 002°32'0 0.1
2017-Sep-14 22:59N 04°27' W 002°32'0 0.0
2017-Sep-14 22:29N 04°27' W 002°32'0 0.2
2017-Sep-14 21:59N 04°27' W 002°32'2 3.6
2017-Sep-14 21:30N 04°29' W 002°30'0 0.0
2017-Sep-14 21:00N 04°29' W 002°30'0 0.1
2017-Sep-14 20:30N 04°29' W 002°30'0 0.0
2017-Sep-14 19:59N 04°29' W 002°30'0 0.2
2017-Sep-14 19:29N 04°29' W 002°30'0 0.1
2017-Sep-14 19:00N 04°29' W 002°30'0 0.1
2017-Sep-14 18:30N 04°29' W 002°30'0 0.0
2017-Sep-14 17:59N 04°29' W 002°30'0 0.0
2017-Sep-14 17:25N 04°29' W 002°30'0 0.0
2017-Sep-14 16:59N 04°29' W 002°30'0 0.0
2017-Sep-14 16:29N 04°29' W 002°30'0 0.0
2017-Sep-14 16:00N 04°29' W 002°30'0 0.0
2017-Sep-14 15:30N 04°29' W 002°30'0 0.0
2017-Sep-14 15:00N 04°29' W 002°30'2 3.1
2017-Sep-14 14:29N 04°28' W 002°32'1 2.3
2017-Sep-14 13:59N 04°28' W 002°33'0 0.3
2017-Sep-14 13:30N 04°28' W 002°33'0 0.1
2017-Sep-14 13:00N 04°28' W 002°33'0 0.2
2017-Sep-14 12:29N 04°28' W 002°33'0 0.2
2017-Sep-14 11:57N 04°28' W 002°33'0 0.1
2017-Sep-14 11:27N 04°28' W 002°33'0 0.1
2017-Sep-14 11:00N 04°28' W 002°33'0 0.0
2017-Sep-14 10:30N 04°28' W 002°33'0 0.1
2017-Sep-14 09:59N 04°28' W 002°33'0 0.5
2017-Sep-14 09:29N 04°28' W 002°33'1 2.2
2017-Sep-14 08:59N 04°29' W 002°32'1 0.9
2017-Sep-14 08:25N 04°29' W 002°32'0 0.0
2017-Sep-14 08:00N 04°29' W 002°32'0 0.0
2017-Sep-14 07:30N 04°29' W 002°32'0 0.0
2017-Sep-14 06:59N 04°29' W 002°32'0 0.0
2017-Sep-14 06:29N 04°29' W 002°32'2 3.4
2017-Sep-14 06:00N 04°30' W 002°30'611.2
2017-Sep-14 05:30N 04°31' W 002°25'611.4
2017-Sep-14 05:00N 04°33' W 002°19'611.7
2017-Sep-14 04:29N 04°34' W 002°13'611.9
2017-Sep-14 04:01N 04°34' W 002°08'612.0
2017-Sep-14 03:30N 04°36' W 002°02'712.1
2017-Sep-14 02:56N 04°38' W 001°55'1012.5
2017-Sep-14 02:10N 04°44' W 001°48'212.4
2017-Sep-14 02:00N 04°45' W 001°46'711.7
2017-Sep-14 01:21N 04°52' W 001°42'22 1.2
2017-Sep-13 06:20N 04°36' W 001°58'412.4
2017-Sep-13 05:59N 04°35' W 002°03'612.2
2017-Sep-13 05:29N 04°34' W 002°08'612.0
2017-Sep-13 04:59N 04°32' W 002°14'611.9
2017-Sep-13 04:30N 04°31' W 002°20'611.7
2017-Sep-13 04:00N 04°31' W 002°26'510.1
2017-Sep-13 03:30N 04°29' W 002°30'0 0.2
2017-Sep-13 02:37N 04°29' W 002°30'0 0.0
2017-Sep-13 02:29N 04°29' W 002°30'0 0.0
2017-Sep-13 02:00N 04°29' W 002°30'0 0.0
2017-Sep-13 01:30N 04°29' W 002°30'0 0.0
2017-Sep-13 00:59N 04°29' W 002°30'0 0.0
2017-Sep-13 00:29N 04°29' W 002°30'0 0.0
2017-Sep-12 23:59N 04°29' W 002°30'0 0.1
2017-Sep-12 23:29N 04°29' W 002°30'0 0.1
2017-Sep-12 23:00N 04°29' W 002°30'0 0.0
2017-Sep-12 22:30N 04°29' W 002°30'0 0.0
2017-Sep-12 21:59N 04°29' W 002°30'0 0.1
2017-Sep-12 21:29N 04°29' W 002°30'1 2.3
2017-Sep-12 21:01N 04°29' W 002°31'1 2.9
2017-Sep-12 20:30N 04°28' W 002°33'0 0.7
2017-Sep-12 19:59N 04°28' W 002°33'0 0.1
2017-Sep-12 19:29N 04°28' W 002°33'0 0.0
2017-Sep-12 18:59N 04°28' W 002°33'0 0.1
2017-Sep-12 18:30N 04°28' W 002°33'0 0.1
2017-Sep-12 18:00N 04°28' W 002°33'0 0.1
2017-Sep-12 17:30N 04°28' W 002°33'0 0.0
2017-Sep-12 16:59N 04°28' W 002°33'0 0.0
2017-Sep-12 16:29N 04°28' W 002°33'0 0.2
2017-Sep-12 15:59N 04°28' W 002°33'0 0.6
2017-Sep-12 15:30N 04°28' W 002°33'0 0.2
2017-Sep-12 15:00N 04°28' W 002°33'2 4.4
2017-Sep-12 14:29N 04°29' W 002°31'0 0.2
2017-Sep-12 13:59N 04°29' W 002°30'0 0.0
2017-Sep-12 13:29N 04°29' W 002°30'0 0.0
2017-Sep-12 13:00N 04°29' W 002°30'0 0.0
2017-Sep-12 12:30N 04°29' W 002°30'0 0.0
2017-Sep-12 12:00N 04°29' W 002°30'0 0.0
2017-Sep-12 11:30N 04°29' W 002°30'0 0.0
2017-Sep-12 10:59N 04°29' W 002°30'0 0.0
2017-Sep-12 10:29N 04°29' W 002°30'0 0.0
2017-Sep-12 09:59N 04°29' W 002°30'0 0.1
2017-Sep-12 09:30N 04°29' W 002°30'0 0.1
2017-Sep-12 09:00N 04°29' W 002°30'0 0.1
2017-Sep-12 08:30N 04°29' W 002°30'0 0.0
2017-Sep-12 07:59N 04°29' W 002°30'0 0.1
2017-Sep-12 07:29N 04°29' W 002°30'0 0.2
2017-Sep-12 06:59N 04°29' W 002°30'0 0.2
2017-Sep-12 06:30N 04°29' W 002°30'0 0.1
2017-Sep-12 06:00N 04°29' W 002°30'0 0.1
2017-Sep-12 05:30N 04°29' W 002°31'1 2.0
2017-Sep-12 04:59N 04°28' W 002°31'1 1.9
2017-Sep-12 04:29N 04°28' W 002°32'0 0.0
2017-Sep-12 03:59N 04°28' W 002°32'0 0.0
2017-Sep-12 03:31N 04°28' W 002°32'0 0.1
2017-Sep-12 03:00N 04°28' W 002°32'0 0.3
2017-Sep-12 02:30N 04°28' W 002°32'0 0.1
2017-Sep-12 01:59N 04°28' W 002°32'  

Dump ship's entire track history